createdAt,value
2018-11-28T00:01:50.426Z,99585.78
2018-11-28T00:04:24.184Z,99591.48
2018-11-28T00:06:52.670Z,99582.13
2018-11-28T00:09:21.008Z,99585.24
2018-11-28T00:11:49.355Z,99580.91
2018-11-28T00:14:17.703Z,99588.78
2018-11-28T00:16:46.103Z,99587.20
2018-11-28T00:19:14.406Z,99586.23
2018-11-28T00:21:42.781Z,99581.71
2018-11-28T00:24:11.070Z,99579.78
2018-11-28T00:26:39.379Z,99575.96
2018-11-28T00:29:07.661Z,99583.25
2018-11-28T00:31:36.000Z,99578.64
2018-11-28T00:34:04.439Z,99576.42
2018-11-28T00:36:32.750Z,99578.23
2018-11-28T00:39:01.046Z,99575.20
2018-11-28T00:41:29.410Z,99572.07
2018-11-28T00:43:57.744Z,99574.38
2018-11-28T00:46:26.092Z,99570.55
2018-11-28T00:48:54.403Z,99581.61
2018-11-28T00:51:22.753Z,99579.39
2018-11-28T00:53:51.112Z,99572.03
2018-11-28T00:56:19.448Z,99566.97
2018-11-28T00:58:47.800Z,99567.88
2018-11-28T01:01:16.163Z,99570.50
2018-11-28T01:03:44.551Z,99573.94
2018-11-28T01:06:12.866Z,99576.27
2018-11-28T01:08:41.147Z,99568.39
2018-11-28T01:11:09.537Z,99573.34
2018-11-28T01:13:37.841Z,99576.83
2018-11-28T01:16:06.852Z,99581.00
2018-11-28T01:18:35.129Z,99577.17
2018-11-28T01:21:03.459Z,99580.48
2018-11-28T01:23:31.792Z,99580.01
2018-11-28T01:26:00.117Z,99578.03
2018-11-28T01:28:28.408Z,99584.53
2018-11-28T01:30:56.756Z,99576.66
2018-11-28T01:33:25.113Z,99583.27
2018-11-28T01:35:53.481Z,99583.33
2018-11-28T01:38:21.823Z,99580.86
2018-11-28T01:40:50.220Z,99586.45
2018-11-28T01:43:18.524Z,99585.33
2018-11-28T01:45:46.891Z,99581.56
2018-11-28T01:48:15.251Z,99580.48
2018-11-28T01:50:43.567Z,99580.65
2018-11-28T01:53:11.900Z,99582.13
2018-11-28T01:55:40.243Z,99578.03
2018-11-28T01:58:08.571Z,99579.50
2018-11-28T02:00:36.897Z,99576.55
2018-11-28T02:03:05.263Z,99578.42
2018-11-28T02:05:33.684Z,99587.66
2018-11-28T02:08:02.105Z,99575.46
2018-11-28T02:10:30.490Z,99581.39
2018-11-28T02:12:58.889Z,99580.08
2018-11-28T02:15:27.946Z,99586.23
2018-11-28T02:17:57.256Z,99579.80
2018-11-28T02:20:25.583Z,99579.58
2018-11-28T02:22:54.023Z,99575.41
2018-11-28T02:25:22.355Z,99578.38
2018-11-28T02:27:50.768Z,99575.16
2018-11-28T02:30:19.976Z,99572.14
2018-11-28T02:32:49.223Z,99570.27
2018-11-28T02:35:18.269Z,99562.88
2018-11-28T02:37:46.735Z,99568.90
2018-11-28T02:40:21.823Z,99567.25
2018-11-28T02:42:50.680Z,99563.44
2018-11-28T02:45:22.024Z,99568.91
2018-11-28T02:47:50.997Z,99573.23
2018-11-28T02:50:19.416Z,99564.97
2018-11-28T02:52:47.759Z,99569.02
2018-11-28T02:55:16.961Z,99564.06
2018-11-28T02:57:46.367Z,99561.44
2018-11-28T03:00:16.052Z,99558.92
2018-11-28T03:02:44.482Z,99564.01
2018-11-28T03:05:13.388Z,99568.61
2018-11-28T03:07:41.780Z,99567.27
2018-11-28T03:10:12.776Z,99565.58
2018-11-28T03:12:41.156Z,99559.44
2018-11-28T03:15:11.336Z,99551.80
2018-11-28T03:17:39.782Z,99544.56
2018-11-28T03:20:09.651Z,99543.94
2018-11-28T03:22:38.051Z,99542.16
2018-11-28T03:25:08.103Z,99546.43
2018-11-28T03:27:36.464Z,99546.56
2018-11-28T03:30:08.876Z,99543.70
2018-11-28T03:32:37.209Z,99546.02
2018-11-28T03:35:06.214Z,99545.64
2018-11-28T03:37:34.545Z,99556.13
2018-11-28T03:40:02.983Z,99554.19
2018-11-28T03:42:31.457Z,99554.07
2018-11-28T03:44:59.780Z,99549.00
2018-11-28T03:47:28.117Z,99547.73
2018-11-28T03:49:56.416Z,99547.12
2018-11-28T03:52:24.755Z,99546.03
2018-11-28T03:54:53.044Z,99543.81
2018-11-28T03:57:21.449Z,99546.77
2018-11-28T03:59:49.735Z,99547.22
2018-11-28T04:02:18.070Z,99543.30
2018-11-28T04:04:52.989Z,99546.72
2018-11-28T04:07:21.354Z,99544.09
2018-11-28T04:09:49.701Z,99542.33
2018-11-28T04:12:18.172Z,99548.38
2018-11-28T04:14:46.556Z,99545.16
2018-11-28T04:17:14.897Z,99550.95
2018-11-28T04:19:43.345Z,99551.34
2018-11-28T04:22:11.678Z,99541.31
2018-11-28T04:24:40.016Z,99542.48
2018-11-28T04:27:08.463Z,99544.39
2018-11-28T04:29:36.768Z,99545.25
2018-11-28T04:32:05.138Z,99551.52
2018-11-28T04:34:33.540Z,99552.71
2018-11-28T04:37:01.887Z,99552.88
2018-11-28T04:39:30.277Z,99550.39
2018-11-28T04:41:58.626Z,99550.25
2018-11-28T04:44:26.932Z,99546.22
2018-11-28T04:46:56.316Z,99549.40
2018-11-28T04:49:24.676Z,99552.20
2018-11-28T04:51:53.026Z,99552.88
2018-11-28T04:54:21.315Z,99545.98
2018-11-28T04:56:49.627Z,99550.04
2018-11-28T04:59:18.016Z,99550.50
2018-11-28T05:01:46.400Z,99542.69
2018-11-28T05:04:14.893Z,99540.57
2018-11-28T05:07:47.596Z,99549.48
2018-11-28T05:10:31.973Z,99548.48
2018-11-28T05:13:00.823Z,99554.31
2018-11-28T05:19:01.618Z,99549.13
2018-11-28T05:21:35.335Z,99549.29
2018-11-28T05:24:09.572Z,99557.66
2018-11-28T05:26:43.046Z,99558.70
2018-11-28T05:29:15.234Z,99565.48
2018-11-28T05:31:50.054Z,99559.96
2018-11-28T05:34:18.397Z,99563.95
2018-11-28T05:36:46.720Z,99564.75
2018-11-28T05:39:15.026Z,99565.25
2018-11-28T05:41:43.490Z,99562.23
2018-11-28T05:44:11.877Z,99566.52
2018-11-28T05:46:40.292Z,99565.61
2018-11-28T05:49:08.589Z,99567.27
2018-11-28T05:51:36.968Z,99565.82
2018-11-28T05:54:05.405Z,99559.33
2018-11-28T05:56:33.761Z,99568.61
2018-11-28T05:59:03.442Z,99565.31
2018-11-28T06:01:30.549Z,99568.17
2018-11-28T06:03:58.972Z,99573.45
2018-11-28T06:07:30.723Z,99571.06
2018-11-28T06:09:59.461Z,99579.50
2018-11-28T06:12:28.237Z,99585.14
2018-11-28T06:14:56.801Z,99579.70
2018-11-28T06:17:25.198Z,99587.46
2018-11-28T06:19:53.597Z,99584.89
2018-11-28T06:22:21.997Z,99581.94
2018-11-28T06:24:50.451Z,99582.22
2018-11-28T06:27:18.869Z,99588.37
2018-11-28T06:29:47.418Z,99582.33
2018-11-28T06:32:16.258Z,99587.04
2018-11-28T06:34:44.597Z,99589.92
2018-11-28T06:37:13.080Z,99587.36
2018-11-28T06:39:41.773Z,99587.36
2018-11-28T06:42:10.384Z,99595.92
2018-11-28T06:44:39.651Z,99582.02
2018-11-28T06:47:08.329Z,99587.66
2018-11-28T06:49:37.459Z,99601.58
2018-11-28T06:52:05.804Z,99598.05
2018-11-28T06:54:34.106Z,99600.34
2018-11-28T06:57:02.457Z,99599.55
2018-11-28T06:59:30.755Z,99599.00
2018-11-28T07:01:59.203Z,99601.67
2018-11-28T07:04:27.716Z,99610.14
2018-11-28T07:06:56.096Z,99608.22
2018-11-28T07:09:24.426Z,99612.61
2018-11-28T07:11:52.809Z,99608.06
2018-11-28T07:14:21.130Z,99617.10
2018-11-28T07:16:49.573Z,99618.43
2018-11-28T07:19:18.002Z,99616.72
2018-11-28T07:21:58.356Z,99624.42
2018-11-28T07:24:27.345Z,99632.75
2018-11-28T07:26:55.791Z,99629.00
2018-11-28T07:29:24.259Z,99627.19
2018-11-28T07:31:52.749Z,99627.10
2018-11-28T07:34:21.193Z,99635.11
2018-11-28T07:36:49.633Z,99629.52
2018-11-28T07:39:17.989Z,99625.80
2018-11-28T07:41:46.362Z,99623.41
2018-11-28T07:44:14.811Z,99627.35
2018-11-28T07:46:43.318Z,99631.52
2018-11-28T07:49:11.690Z,99628.61
2018-11-28T07:51:40.038Z,99635.86
2018-11-28T07:54:09.640Z,99634.20
2018-11-28T07:56:44.698Z,99630.03
2018-11-28T07:59:20.703Z,99626.50
2018-11-28T08:01:57.099Z,99620.79
2018-11-28T08:04:29.001Z,99622.80
2018-11-28T08:06:58.790Z,99631.52
2018-11-28T08:09:32.206Z,99640.92
2018-11-28T08:12:02.979Z,99643.14
2018-11-28T08:14:36.785Z,99639.61
2018-11-28T08:17:05.473Z,99637.58
2018-11-28T08:19:36.209Z,99636.93
2018-11-28T08:22:06.411Z,99637.95
2018-11-28T08:24:39.228Z,99632.89
2018-11-28T08:27:07.844Z,99635.67
2018-11-28T08:29:36.369Z,99644.34
2018-11-28T08:32:07.847Z,99643.55
2018-11-28T08:34:36.253Z,99642.02
2018-11-28T08:37:07.698Z,99636.31
2018-11-28T08:39:40.664Z,99640.81
2018-11-28T08:42:11.665Z,99636.77
2018-11-28T08:44:40.067Z,99634.48
2018-11-28T08:47:08.654Z,99631.41
2018-11-28T08:49:37.196Z,99631.70
2018-11-28T08:52:08.489Z,99643.33
2018-11-28T08:54:37.788Z,99641.80
2018-11-28T08:57:08.631Z,99630.71
2018-11-28T09:01:03.473Z,99637.27
2018-11-28T09:03:31.957Z,99637.69
2018-11-28T09:06:03.363Z,99635.63
2018-11-28T09:08:32.447Z,99632.07
2018-11-28T09:11:01.090Z,99636.02
2018-11-28T09:13:30.718Z,99630.72
2018-11-28T09:16:00.149Z,99627.67
2018-11-28T09:18:28.543Z,99639.95
2018-11-28T09:20:57.197Z,99643.77
2018-11-28T09:23:26.119Z,99640.33
2018-11-28T09:25:54.550Z,99633.47
2018-11-28T09:28:23.065Z,99639.52
2018-11-28T09:30:51.716Z,99641.52
2018-11-28T09:33:20.534Z,99646.66
2018-11-28T09:35:50.165Z,99648.17
2018-11-28T09:38:18.769Z,99646.40
2018-11-28T09:40:47.233Z,99639.54
2018-11-28T09:43:15.644Z,99636.85
2018-11-28T09:45:44.123Z,99635.95
2018-11-28T09:48:13.108Z,99632.88
2018-11-28T09:50:42.765Z,99635.71
2018-11-28T09:53:12.050Z,99635.83
2018-11-28T09:55:42.650Z,99635.23
2018-11-28T09:58:11.227Z,99632.36
2018-11-28T10:00:40.896Z,99624.62
2018-11-28T10:03:09.281Z,99631.74
2018-11-28T10:05:39.065Z,99627.59
2018-11-28T10:08:07.575Z,99631.58
2018-11-28T10:10:37.304Z,99620.27
2018-11-28T10:13:07.762Z,99615.88
2018-11-28T10:15:36.262Z,99612.13
2018-11-28T10:18:06.485Z,99616.03
2018-11-28T10:20:34.937Z,99614.78
2018-11-28T10:23:04.223Z,99610.70
2018-11-28T10:25:33.291Z,99604.05
2018-11-28T10:28:05.680Z,99598.80
2018-11-28T10:30:40.315Z,99594.77
2018-11-28T10:33:13.407Z,99582.86
2018-11-28T10:35:42.730Z,99581.25
2018-11-28T10:38:16.586Z,99573.38
2018-11-28T10:40:46.168Z,99578.58
2018-11-28T10:43:14.839Z,99570.12
2018-11-28T10:45:46.329Z,99571.12
2018-11-28T10:48:15.717Z,99569.94
2018-11-28T10:50:49.642Z,99568.74
2018-11-28T10:53:18.425Z,99560.38
2018-11-28T10:55:47.250Z,99566.20
2018-11-28T10:58:16.733Z,99568.91
2018-11-28T11:00:52.995Z,99561.41
2018-11-28T11:03:26.534Z,99567.37
2018-11-28T11:06:00.241Z,99568.09
2018-11-28T11:08:32.718Z,99572.66
2018-11-28T11:11:06.647Z,99571.78
2018-11-28T11:13:41.733Z,99567.98
2018-11-28T11:16:10.170Z,99568.37
2018-11-28T11:18:39.926Z,99564.35
2018-11-28T11:21:08.373Z,99554.95
2018-11-28T11:23:36.789Z,99559.23
2018-11-28T11:26:06.367Z,99552.72
2018-11-28T11:28:34.896Z,99557.91
2018-11-28T11:31:03.630Z,99554.75
2018-11-28T11:33:32.050Z,99548.42
2018-11-28T11:36:00.551Z,99550.48
2018-11-28T11:38:28.904Z,99550.27
2018-11-28T11:40:58.104Z,99547.89
2018-11-28T11:43:26.927Z,99547.31
2018-11-28T11:45:55.959Z,99551.70
2018-11-28T11:48:26.437Z,99543.16
2018-11-28T11:50:55.731Z,99547.50
2018-11-28T11:53:24.923Z,99549.34
2018-11-28T11:55:53.842Z,99545.72
2018-11-28T11:58:22.229Z,99548.10
2018-11-28T12:00:50.619Z,99544.61
2018-11-28T12:03:19.084Z,99541.45
2018-11-28T12:05:51.821Z,99532.23
2018-11-28T12:08:23.397Z,99541.41
2018-11-28T12:10:54.761Z,99531.02
2018-11-28T12:13:25.132Z,99540.77
2018-11-28T12:16:02.012Z,99540.88
2018-11-28T12:18:53.361Z,99526.82
2018-11-28T12:21:46.231Z,99515.05
2018-11-28T12:24:15.561Z,99516.78
2018-11-28T12:26:44.034Z,99514.82
2018-11-28T12:29:14.598Z,99516.53
2018-11-28T12:31:44.877Z,99509.66
2018-11-28T12:34:19.330Z,99508.32
2018-11-28T12:36:47.954Z,99507.86
2018-11-28T12:39:17.945Z,99511.59
2018-11-28T12:41:51.621Z,99511.25
2018-11-28T12:44:21.909Z,99514.20
2018-11-28T12:46:50.272Z,99510.27
2018-11-28T12:49:18.703Z,99507.56
2018-11-28T12:51:53.880Z,99506.59
2018-11-28T12:54:23.279Z,99507.64
2018-11-28T12:56:58.646Z,99509.94
2018-11-28T12:59:26.975Z,99516.23
2018-11-28T13:01:56.430Z,99508.23
2018-11-28T13:04:32.150Z,99514.42
2018-11-28T13:07:11.245Z,99508.86
2018-11-28T13:09:39.615Z,99506.52
2018-11-28T13:12:07.927Z,99499.47
2018-11-28T13:14:36.220Z,99498.87
2018-11-28T13:17:06.072Z,99495.86
2018-11-28T13:19:34.530Z,99504.59
2018-11-28T13:22:02.916Z,99497.25
2018-11-28T13:24:31.172Z,99496.98
2018-11-28T13:26:59.614Z,99497.25
2018-11-28T13:29:28.171Z,99494.54
2018-11-28T13:31:56.500Z,99497.64
2018-11-28T13:34:24.891Z,99493.27
2018-11-28T13:36:53.184Z,99486.83
2018-11-28T13:39:22.124Z,99490.87
2018-11-28T13:41:50.540Z,99492.34
2018-11-28T13:44:18.831Z,99491.56
2018-11-28T13:46:52.514Z,99496.54
2018-11-28T13:49:20.903Z,99486.92
2018-11-28T13:51:49.199Z,99490.09
2018-11-28T13:54:21.353Z,99491.17
2018-11-28T13:57:04.689Z,99488.54
2018-11-28T13:59:15.959Z,99487.86
2018-11-28T14:01:45.578Z,99492.03
2018-11-28T14:04:13.852Z,99497.09
2018-11-28T14:06:42.225Z,99487.77
2018-11-28T14:09:10.527Z,99495.69
2018-11-28T14:11:39.885Z,99490.17
2018-11-28T14:14:09.028Z,99489.86
2018-11-28T14:16:37.308Z,99492.34
2018-11-28T14:19:05.810Z,99488.66
2018-11-28T14:21:34.211Z,99487.80
2018-11-28T14:24:02.631Z,99499.27
2018-11-28T14:26:31.288Z,99491.97
2018-11-28T14:28:59.528Z,99496.78
2018-11-28T14:31:27.811Z,99496.99
2018-11-28T14:33:56.084Z,99495.82
2018-11-28T14:36:24.429Z,99490.63
2018-11-28T14:38:58.080Z,99493.19
2018-11-28T14:41:26.409Z,99496.15
2018-11-28T14:43:54.773Z,99481.49
2018-11-28T14:46:23.057Z,99488.39
2018-11-28T14:48:51.604Z,99491.38
2018-11-28T14:51:19.884Z,99486.05
2018-11-28T14:53:48.576Z,99483.52
2018-11-28T14:56:16.484Z,99485.30
2018-11-28T14:58:44.783Z,99484.80
2018-11-28T15:01:13.047Z,99483.56
2018-11-28T15:03:41.356Z,99492.03
2018-11-28T15:06:12.488Z,99481.56
2018-11-28T15:08:40.767Z,99477.09
2018-11-28T15:11:11.006Z,99466.13
2018-11-28T15:13:39.905Z,99470.93
2018-11-28T15:16:08.255Z,99473.17
2018-11-28T15:18:36.566Z,99470.93
2018-11-28T15:21:05.352Z,99468.30
2018-11-28T15:23:33.699Z,99476.05
2018-11-28T15:26:02.015Z,99474.34
2018-11-28T15:28:30.384Z,99469.02
2018-11-28T15:30:58.863Z,99464.74
2018-11-28T15:33:27.401Z,99466.45
2018-11-28T15:35:55.792Z,99462.61
2018-11-28T15:38:24.193Z,99464.35
2018-11-28T15:40:52.512Z,99468.65
2018-11-28T15:43:27.570Z,99470.82
2018-11-28T15:45:55.862Z,99465.55
2018-11-28T15:48:24.150Z,99462.92
2018-11-28T15:50:56.821Z,99471.81
2018-11-28T15:53:25.155Z,99468.26
2018-11-28T15:55:53.428Z,99476.26
2018-11-28T15:58:21.700Z,99472.20
2018-11-28T16:00:49.986Z,99474.56
2018-11-28T16:03:19.101Z,99475.30
2018-11-28T16:05:47.433Z,99483.19
2018-11-28T16:08:15.756Z,99475.06
2018-11-28T16:10:44.601Z,99476.33
2018-11-28T16:13:14.608Z,99481.06
2018-11-28T16:15:56.922Z,99477.27
2018-11-28T16:18:25.247Z,99483.44
2018-11-28T16:20:53.551Z,99473.23
2018-11-28T16:23:21.992Z,99471.11
2018-11-28T16:25:50.273Z,99479.35
2018-11-28T16:28:18.789Z,99478.00
2018-11-28T16:30:47.233Z,99469.03
2018-11-28T16:33:15.559Z,99475.22
2018-11-28T16:35:43.808Z,99467.86
2018-11-28T16:38:12.220Z,99468.39
2018-11-28T16:40:40.487Z,99460.03
2018-11-28T16:43:08.774Z,99464.97
2018-11-28T16:45:37.057Z,99468.98
2018-11-28T16:48:05.819Z,99455.09
2018-11-28T16:50:35.096Z,99452.00
2018-11-28T16:53:03.474Z,99453.96
2018-11-28T16:55:31.767Z,99456.95
2018-11-28T16:58:00.266Z,99457.80
2018-11-28T17:00:29.879Z,99464.16
2018-11-28T17:02:58.332Z,99476.60
2018-11-28T17:05:26.608Z,99478.17
2018-11-28T17:07:54.966Z,99473.77
2018-11-28T17:10:26.215Z,99468.05
2018-11-28T17:12:55.104Z,99465.95
2018-11-28T17:15:23.439Z,99473.06
2018-11-28T17:17:51.744Z,99461.22
2018-11-28T17:20:21.057Z,99459.51
2018-11-28T17:22:50.306Z,99449.91
2018-11-28T17:25:26.587Z,99442.45
2018-11-28T17:27:54.969Z,99432.38
2018-11-28T17:30:24.635Z,99427.12
2018-11-28T17:32:52.993Z,99420.54
2018-11-28T17:35:21.351Z,99414.34
2018-11-28T17:37:49.672Z,99410.65
2018-11-28T17:40:27.238Z,99418.94
2018-11-28T17:42:56.659Z,99418.62
2018-11-28T17:45:25.438Z,99418.44
2018-11-28T17:47:53.825Z,99420.31
2018-11-28T17:50:24.164Z,99418.90
2018-11-28T17:52:56.514Z,99423.41
2018-11-28T17:55:25.358Z,99422.31
2018-11-28T17:57:53.650Z,99417.92
2018-11-28T18:00:22.001Z,99423.80
2018-11-28T18:02:50.359Z,99421.23
2018-11-28T18:05:18.623Z,99415.69
2018-11-28T18:07:46.942Z,99405.16
2018-11-28T18:10:16.643Z,99399.89
2018-11-28T18:12:56.155Z,99406.16
2018-11-28T18:15:24.459Z,99395.14
2018-11-28T18:17:54.845Z,99400.41
2018-11-28T18:20:23.123Z,99399.28
2018-11-28T18:22:51.436Z,99392.31
2018-11-28T18:25:19.953Z,99398.89
2018-11-28T18:27:48.280Z,99400.95
2018-11-28T18:30:16.580Z,99407.72
2018-11-28T18:32:45.500Z,99413.11
2018-11-28T18:35:13.795Z,99416.08
2018-11-28T18:37:42.062Z,99416.92
2018-11-28T18:40:12.169Z,99412.44
2018-11-28T18:42:41.339Z,99407.99
2018-11-28T18:45:12.384Z,99403.69
2018-11-28T18:47:40.684Z,99411.59
2018-11-28T18:50:11.068Z,99418.38
2018-11-28T18:52:40.247Z,99423.10
2018-11-28T18:55:16.492Z,99423.64
2018-11-28T18:57:40.951Z,99420.47
2018-11-28T19:00:11.576Z,99423.73
2018-11-28T19:02:40.455Z,99413.89
2018-11-28T19:05:08.866Z,99415.58
2018-11-28T19:07:37.143Z,99406.21
2018-11-28T19:10:26.241Z,99412.03
2018-11-28T19:12:52.474Z,99407.72
2018-11-28T19:15:25.655Z,99412.67
2018-11-28T19:17:54.667Z,99401.48
2018-11-28T19:20:23.655Z,99399.70
2018-11-28T19:22:53.872Z,99406.52
2018-11-28T19:25:25.168Z,99407.63
2018-11-28T19:27:53.643Z,99405.08
2018-11-28T19:30:31.577Z,99409.70
2018-11-28T19:33:00.126Z,99408.25
2018-11-28T19:41:36.431Z,99421.98
2018-11-28T19:44:23.555Z,99423.95
2018-11-28T19:46:54.347Z,99414.56
2018-11-28T19:49:22.907Z,99406.38
2018-11-28T19:51:52.700Z,99407.84
2018-11-28T19:54:21.443Z,99403.75
2018-11-28T19:56:50.307Z,99404.43
2018-11-28T19:59:18.902Z,99408.70
2018-11-28T20:01:47.771Z,99394.00
2018-11-28T20:04:16.288Z,99390.27
2018-11-28T20:06:45.330Z,99397.16
2018-11-28T20:09:21.527Z,99396.98
2018-11-28T20:11:50.334Z,99400.34
2018-11-28T20:14:18.730Z,99412.92
2018-11-28T20:16:47.857Z,99409.77
2018-11-28T20:19:17.660Z,99416.66
2018-11-28T20:21:45.037Z,99408.31
2018-11-28T20:24:13.664Z,99401.73
2018-11-28T20:26:42.128Z,99403.86
2018-11-28T20:29:11.057Z,99394.52
2018-11-28T20:31:40.080Z,99395.97
2018-11-28T20:34:09.071Z,99394.41
2018-11-28T20:36:37.474Z,99394.13
2018-11-28T20:39:09.003Z,99388.97
2018-11-28T20:41:37.399Z,99386.47
2018-11-28T20:44:06.202Z,99382.77
2018-11-28T20:46:36.552Z,99390.41
2018-11-28T20:49:05.781Z,99381.20
2018-11-28T20:51:35.934Z,99378.22
2018-11-28T20:54:04.610Z,99379.60
2018-11-28T20:56:33.979Z,99379.99
2018-11-28T20:59:02.906Z,99375.66
2018-11-28T21:01:32.160Z,99377.83
2018-11-28T21:04:00.620Z,99374.09
2018-11-28T21:06:29.024Z,99370.70
2018-11-28T21:08:57.824Z,99375.01
2018-11-28T21:11:26.285Z,99376.36
2018-11-28T21:13:54.775Z,99371.30
2018-11-28T21:16:23.192Z,99368.59
2018-11-28T21:18:51.999Z,99371.40
2018-11-28T21:21:27.467Z,99358.48
2018-11-28T21:23:53.295Z,99359.36
2018-11-28T21:27:07.130Z,99362.84
2018-11-28T21:29:36.874Z,99356.89
2018-11-28T21:32:05.473Z,99364.55
2018-11-28T21:34:34.525Z,99354.34
2018-11-28T21:37:04.456Z,99357.97
2018-11-28T21:39:32.796Z,99361.63
2018-11-28T21:42:01.116Z,99358.98
2018-11-28T21:44:29.807Z,99352.49
2018-11-28T21:46:58.201Z,99354.89
2018-11-28T21:49:26.831Z,99356.98
2018-11-28T21:51:55.316Z,99351.86
2018-11-28T21:54:24.238Z,99344.05
2018-11-28T21:56:53.728Z,99339.24
2018-11-28T21:59:22.168Z,99345.33
2018-11-28T22:01:50.675Z,99343.35
2018-11-28T22:04:19.456Z,99342.73
2018-11-28T22:06:48.082Z,99348.38
2018-11-28T22:09:17.047Z,99343.58
2018-11-28T22:11:46.112Z,99347.29
2018-11-28T22:14:14.613Z,99353.41
2018-11-28T22:16:43.034Z,99361.08
2018-11-28T22:19:11.444Z,99365.42
2018-11-28T22:21:39.819Z,99363.79
2018-11-28T22:24:08.225Z,99373.47
2018-11-28T22:26:36.600Z,99362.71
2018-11-28T22:29:05.089Z,99362.52
2018-11-28T22:31:33.456Z,99356.37
2018-11-28T22:34:01.831Z,99357.38
2018-11-28T22:36:30.138Z,99350.71
2018-11-28T22:38:58.467Z,99350.12
2018-11-28T22:41:26.812Z,99342.34
2018-11-28T22:43:55.262Z,99340.72
2018-11-28T22:46:23.613Z,99352.64
2018-11-28T22:48:52.103Z,99349.35
2018-11-28T22:51:20.480Z,99348.81
2018-11-28T22:53:49.146Z,99344.86
2018-11-28T22:56:17.441Z,99341.92
2018-11-28T22:58:46.061Z,99335.88
2018-11-28T23:01:14.379Z,99340.06
2018-11-28T23:03:42.869Z,99341.84
2018-11-28T23:06:11.236Z,99344.70
2018-11-28T23:08:39.733Z,99332.74
2018-11-28T23:11:08.046Z,99337.44
2018-11-28T23:13:36.351Z,99341.84
2018-11-28T23:16:05.069Z,99341.23
2018-11-28T23:18:33.731Z,99338.05
2018-11-28T23:21:02.046Z,99341.00
2018-11-28T23:23:30.420Z,99350.75
2018-11-28T23:25:58.727Z,99348.58
2018-11-28T23:28:27.092Z,99342.31
2018-11-28T23:30:55.493Z,99345.80
2018-11-28T23:33:23.814Z,99332.89
2018-11-28T23:35:52.225Z,99334.02
2018-11-28T23:38:20.544Z,99333.63
2018-11-28T23:40:48.968Z,99325.42
2018-11-28T23:43:17.593Z,99329.61
2018-11-28T23:45:47.378Z,99328.52
2018-11-28T23:48:15.692Z,99325.66
2018-11-28T23:50:44.044Z,99321.36
2018-11-28T23:53:12.488Z,99324.19
2018-11-28T23:55:40.790Z,99327.67
2018-11-28T23:58:09.214Z,99321.31
